Time;durP1;ratioP1;P1;durP2;ratioP2;P2;SDS_P1;SDS_P2;PMS_P1;PMS_P2;Temp;Humidity;BMP_temperature;BMP_pressure;BME280_temperature;BME280_humidity;BME280_pressure;Samples;Min_cycle;Max_cycle;Signal;HPM_P1;HPM_P2
2022/11/13 00:01:07;;;;;;;37.22;30.83;;;5.50;99.90;;;;;;4961651;28;20129;-74
2022/11/13 00:03:33;;;;;;;31.45;26.63;;;5.50;99.90;;;;;;4960731;28;20049;-74
2022/11/13 00:06:02;;;;;;;29.73;26.63;;;5.50;99.90;;;;;;4960965;28;20050;-74
2022/11/13 00:08:27;;;;;;;29.35;26.25;;;5.50;99.90;;;;;;4976062;28;20118;-74
2022/11/13 00:11:05;;;;;;;29.52;26.58;;;5.50;99.90;;;;;;4961500;28;20125;-74
2022/11/13 00:13:30;;;;;;;30.45;27.23;;;5.50;99.90;;;;;;4991784;28;20129;-74
2022/11/13 00:16:01;;;;;;;31.90;28.42;;;5.50;99.90;;;;;;4993387;28;20129;-74
2022/11/13 00:18:28;;;;;;;32.55;29.00;;;5.50;99.90;;;;;;4992175;28;20502;-74
2022/11/13 00:20:55;;;;;;;32.47;29.08;;;5.50;99.90;;;;;;4976077;28;20076;-74
2022/11/13 00:23:20;;;;;;;32.55;29.08;;;5.50;99.90;;;;;;4960423;28;20041;-74
2022/11/13 00:25:46;;;;;;;30.70;27.70;;;5.50;99.90;;;;;;4960346;28;20038;-74
2022/11/13 00:28:12;;;;;;;31.95;28.58;;;5.50;99.90;;;;;;4991520;28;20121;-74
2022/11/13 00:30:37;;;;;;;29.77;26.52;;;5.50;99.90;;;;;;4992455;28;20041;-74
2022/11/13 00:33:03;;;;;;;29.65;26.50;;;5.50;99.90;;;;;;4969093;28;20034;-74
2022/11/13 00:35:28;;;;;;;29.00;25.90;;;5.50;99.90;;;;;;4977013;28;20093;-74
2022/11/13 00:37:54;;;;;;;30.60;27.50;;;5.50;99.90;;;;;;4984976;28;20054;-74
2022/11/13 00:40:19;;;;;;;28.85;25.75;;;5.50;99.90;;;;;;4956688;28;20485;-74
2022/11/13 00:42:45;;;;;;;28.35;25.55;;;5.40;99.90;;;;;;4974657;28;20116;-74
2022/11/13 00:45:11;;;;;;;27.92;25.13;;;5.40;99.90;;;;;;4988202;28;20030;-74
2022/11/13 00:47:36;;;;;;;28.00;25.20;;;5.40;99.90;;;;;;5014749;28;20399;-74
2022/11/13 00:50:02;;;;;;;29.90;26.25;;;5.40;99.90;;;;;;5022255;28;20082;-75
2022/11/13 00:52:27;;;;;;;31.77;28.38;;;5.40;99.90;;;;;;5040525;28;20476;-74
2022/11/13 00:54:53;;;;;;;32.38;27.25;;;5.40;99.90;;;;;;5002969;28;20087;-74
2022/11/13 00:57:19;;;;;;;32.67;28.02;;;5.30;99.90;;;;;;5020567;28;20052;-74
2022/11/13 00:59:44;;;;;;;29.15;26.02;;;5.30;99.90;;;;;;5023728;28;20041;-74
2022/11/13 01:02:11;;;;;;;29.70;26.27;;;5.30;99.90;;;;;;5035170;28;20038;-74
2022/11/13 01:04:37;;;;;;;28.27;25.48;;;5.30;99.90;;;;;;5007281;28;20044;-74
2022/11/13 01:07:02;;;;;;;29.75;26.55;;;5.30;99.90;;;;;;5041538;28;20038;-74
2022/11/13 01:09:28;;;;;;;31.08;27.77;;;5.20;99.90;;;;;;5035973;28;20557;-74
2022/11/13 01:11:54;;;;;;;30.70;27.60;;;5.20;99.90;;;;;;5027583;28;20052;-74
2022/11/13 01:14:19;;;;;;;30.25;27.13;;;5.20;99.90;;;;;;5021467;28;20120;-74
2022/11/13 01:16:45;;;;;;;37.60;28.15;;;5.20;99.90;;;;;;5044992;28;20488;-74
2022/11/13 01:19:10;;;;;;;30.55;26.73;;;5.20;99.90;;;;;;5035539;28;20120;-74
2022/11/13 01:21:36;;;;;;;31.17;27.92;;;5.20;99.90;;;;;;5023875;28;20101;-74
2022/11/13 01:24:02;;;;;;;30.52;27.23;;;5.20;99.90;;;;;;5018933;28;20495;-74
2022/11/13 01:26:29;;;;;;;32.17;28.77;;;5.20;99.90;;;;;;5012921;28;20038;-74
2022/11/13 01:28:56;;;;;;;31.40;28.10;;;5.20;99.90;;;;;;4997629;28;20033;-74
2022/11/13 01:31:25;;;;;;;32.10;28.77;;;5.20;99.90;;;;;;5026175;28;20515;-74
2022/11/13 01:33:50;;;;;;;33.67;29.90;;;5.20;99.90;;;;;;4995264;28;20037;-74
2022/11/13 01:36:22;;;;;;;34.03;30.42;;;5.30;99.90;;;;;;5011696;28;20578;-74
2022/11/13 01:38:48;;;;;;;32.95;29.38;;;5.40;99.90;;;;;;5018148;28;20076;-74
2022/11/13 01:41:19;;;;;;;34.97;31.30;;;5.40;99.90;;;;;;5045178;28;20049;-74
2022/11/13 01:43:44;;;;;;;33.30;29.85;;;5.50;99.90;;;;;;5006241;28;20893;-74
2022/11/13 01:46:19;;;;;;;33.03;29.48;;;5.60;99.90;;;;;;5025221;28;20050;-74
2022/11/13 01:48:50;;;;;;;32.47;29.17;;;5.60;99.90;;;;;;5005223;28;20076;-74
2022/11/13 01:51:23;;;;;;;32.17;28.90;;;5.70;99.90;;;;;;5027826;28;20042;-74
2022/11/13 01:53:48;;;;;;;;;;;5.70;99.90;;;;;;5010107;28;20041;-74
2022/11/13 01:56:15;;;;;;;30.20;27.10;;;5.70;99.90;;;;;;5017788;28;20646;-74
2022/11/13 01:58:45;;;;;;;29.10;26.08;;;5.70;99.90;;;;;;4994527;28;20517;-74
2022/11/13 02:01:11;;;;;;;28.90;25.80;;;5.70;99.90;;;;;;5011258;28;20095;-74
2022/11/13 02:03:36;;;;;;;26.83;24.23;;;5.70;99.90;;;;;;5027741;28;20046;-74
2022/11/13 02:06:02;;;;;;;26.10;23.40;;;5.60;99.90;;;;;;5000709;28;20056;-74
2022/11/13 02:08:28;;;;;;;25.15;22.50;;;5.60;99.90;;;;;;5017299;28;20046;-74
2022/11/13 02:10:54;;;;;;;28.23;24.77;;;5.60;99.90;;;;;;5034203;28;20511;-74
2022/11/13 02:13:20;;;;;;;27.27;24.42;;;5.50;99.90;;;;;;5026860;28;20092;-74
2022/11/13 02:15:47;;;;;;;26.40;23.70;;;5.50;99.90;;;;;;5027396;28;20038;-74
2022/11/13 02:18:15;;;;;;;26.83;24.10;;;5.50;99.90;;;;;;5018214;28;20116;-74
2022/11/13 02:20:56;;;;;;;27.85;24.95;;;5.50;99.90;;;;;;5001775;28;20044;-74
2022/11/13 02:23:30;;;;;;;27.98;25.05;;;5.50;99.90;;;;;;5027208;28;20034;-74
2022/11/13 02:25:57;;;;;;;28.58;25.55;;;5.60;99.90;;;;;;5016639;28;20114;-74
2022/11/13 02:28:22;;;;;;;27.30;24.52;;;5.60;99.90;;;;;;5036751;28;20065;-74
2022/11/13 02:30:48;;;;;;;26.77;24.10;;;5.60;99.90;;;;;;5039022;28;20100;-74
2022/11/13 02:33:32;;;;;;;26.25;23.60;;;5.60;99.90;;;;;;5026265;28;20503;-74
2022/11/13 02:35:58;;;;;;;26.77;23.95;;;5.60;99.90;;;;;;5008176;28;20485;-74
2022/11/13 02:38:24;;;;;;;27.20;24.10;;;5.60;99.90;;;;;;5036895;28;20127;-74
2022/11/13 02:40:49;;;;;;;26.00;23.42;;;5.60;99.90;;;;;;5047119;28;20384;-74
2022/11/13 02:43:15;;;;;;;26.17;23.50;;;5.60;99.90;;;;;;5027027;28;20038;-74
2022/11/13 02:45:40;;;;;;;25.55;22.95;;;5.60;99.90;;;;;;5025821;28;20026;-74
2022/11/13 02:48:06;;;;;;;25.52;22.90;;;5.60;99.90;;;;;;5025779;28;20448;-74
2022/11/13 02:50:33;;;;;;;24.90;22.30;;;5.70;99.90;;;;;;5004504;28;20064;-74
2022/11/13 02:52:58;;;;;;;26.25;23.42;;;5.80;99.90;;;;;;5021936;28;20037;-74
2022/11/13 02:55:24;;;;;;;24.45;21.95;;;5.80;99.90;;;;;;5012827;28;20038;-74
2022/11/13 02:57:50;;;;;;;23.48;21.27;;;5.90;99.90;;;;;;5008941;28;20034;-74
2022/11/13 03:00:16;;;;;;;23.50;21.20;;;5.90;99.90;;;;;;5032622;28;20041;-74
2022/11/13 03:02:41;;;;;;;23.38;21.05;;;5.90;99.90;;;;;;5031086;28;20038;-74
2022/11/13 03:05:08;;;;;;;23.02;20.50;;;6.00;99.90;;;;;;5038144;28;20041;-74
2022/11/13 03:07:33;;;;;;;22.52;20.23;;;6.00;99.90;;;;;;5021615;28;20038;-74
2022/11/13 03:09:59;;;;;;;22.98;20.58;;;6.10;99.90;;;;;;5046149;28;20040;-74
2022/11/13 03:12:25;;;;;;;22.67;20.38;;;6.10;99.90;;;;;;5039909;28;20042;-74
2022/11/13 03:14:50;;;;;;;22.50;20.25;;;6.10;99.90;;;;;;5030881;28;20048;-74
2022/11/13 03:17:16;;;;;;;21.98;19.88;;;6.10;99.90;;;;;;5036572;28;20128;-74
2022/11/13 03:19:41;;;;;;;21.73;19.52;;;6.10;99.90;;;;;;5010247;28;20049;-74
2022/11/13 03:22:07;;;;;;;21.35;19.15;;;6.10;99.90;;;;;;5030519;28;20432;-74
2022/11/13 03:24:32;;;;;;;22.05;19.85;;;6.10;99.90;;;;;;5013875;28;20042;-74
2022/11/13 03:26:58;;;;;;;22.55;20.17;;;6.10;99.90;;;;;;5003069;28;20037;-74
2022/11/13 03:29:23;;;;;;;21.90;19.67;;;6.10;99.90;;;;;;5042077;28;20041;-74
2022/11/13 03:31:49;;;;;;;21.38;19.35;;;6.10;99.90;;;;;;5050424;28;20037;-74
2022/11/13 03:34:15;;;;;;;21.48;19.25;;;6.00;99.90;;;;;;5048839;28;20049;-74
2022/11/13 03:36:40;;;;;;;21.63;19.60;;;6.00;99.90;;;;;;5012560;28;20128;-74
2022/11/13 03:39:06;;;;;;;21.45;19.30;;;6.00;99.90;;;;;;5025439;28;20037;-74
2022/11/13 03:41:31;;;;;;;21.40;19.30;;;6.00;99.90;;;;;;5043157;28;20033;-74
2022/11/13 03:43:57;;;;;;;22.65;20.23;;;6.00;99.90;;;;;;5042068;28;20045;-74
2022/11/13 03:46:22;;;;;;;21.85;19.55;;;6.00;99.90;;;;;;5044025;28;20125;-74
2022/11/13 03:48:48;;;;;;;21.95;19.83;;;6.00;99.90;;;;;;5028592;28;20088;-74
2022/11/13 03:51:13;;;;;;;21.70;19.63;;;5.90;99.90;;;;;;5021687;28;20047;-74
2022/11/13 03:53:39;;;;;;;22.17;19.85;;;5.90;99.90;;;;;;5030089;28;20124;-75
2022/11/13 03:56:05;;;;;;;22.17;19.27;;;5.90;99.90;;;;;;5029016;28;20029;-75
2022/11/13 03:58:31;;;;;;;22.02;19.75;;;5.90;99.90;;;;;;5007917;28;20072;-74
2022/11/13 04:00:56;;;;;;;21.27;19.08;;;5.90;99.90;;;;;;5039300;28;20053;-74
2022/11/13 04:03:22;;;;;;;21.10;18.90;;;5.80;99.90;;;;;;5031621;28;20455;-74
2022/11/13 04:05:49;;;;;;;21.52;19.27;;;5.80;99.90;;;;;;5046833;28;20037;-74
2022/11/13 04:08:15;;;;;;;21.73;19.58;;;5.70;99.90;;;;;;5037541;28;20092;-74
2022/11/13 04:10:41;;;;;;;21.30;19.25;;;5.70;99.90;;;;;;4996810;28;20037;-74
2022/11/13 04:13:07;;;;;;;20.50;18.42;;;5.60;99.90;;;;;;4996912;28;20049;-74
2022/11/13 04:15:33;;;;;;;20.73;18.45;;;5.60;99.90;;;;;;5029145;28;20532;-74
2022/11/13 04:17:58;;;;;;;20.80;18.73;;;5.60;99.90;;;;;;5009934;28;20058;-74
2022/11/13 04:20:26;;;;;;;20.08;18.02;;;5.50;99.90;;;;;;5033985;28;20038;-74
2022/11/13 04:22:53;;;;;;;21.08;18.95;;;5.50;99.90;;;;;;5008392;28;20045;-74
2022/11/13 04:25:18;;;;;;;21.60;19.35;;;5.40;99.90;;;;;;5031078;28;20096;-74
2022/11/13 04:27:44;;;;;;;21.90;19.58;;;5.40;99.90;;;;;;4990259;28;20439;-74
2022/11/13 04:30:10;;;;;;;20.38;18.27;;;5.30;99.90;;;;;;5029310;28;20065;-74
2022/11/13 04:32:36;;;;;;;21.58;19.30;;;5.30;99.90;;;;;;4993302;28;20062;-74
2022/11/13 04:35:01;;;;;;;21.90;19.55;;;5.20;99.90;;;;;;4997283;28;20061;-74
2022/11/13 04:37:27;;;;;;;23.33;20.98;;;5.20;99.90;;;;;;5038365;28;20041;-74
2022/11/13 04:39:52;;;;;;;21.42;19.27;;;5.20;99.90;;;;;;5032268;28;20045;-74
2022/11/13 04:45:03;;;;;;;23.27;20.77;;;5.10;99.90;;;;;;5012749;28;20049;-74
2022/11/13 04:47:28;;;;;;;22.75;20.30;;;5.10;99.90;;;;;;5036228;28;20038;-74
2022/11/13 04:49:54;;;;;;;24.40;21.90;;;5.10;99.90;;;;;;5035781;28;20037;-74
2022/11/13 04:52:19;;;;;;;22.50;20.20;;;5.10;99.90;;;;;;5022201;28;20061;-74
2022/11/13 04:54:45;;;;;;;24.23;21.58;;;5.10;99.90;;;;;;5028075;28;20030;-74
2022/11/13 04:57:10;;;;;;;25.25;22.60;;;5.10;99.90;;;;;;5002890;28;20092;-74
2022/11/13 04:59:36;;;;;;;23.10;20.80;;;5.10;99.90;;;;;;5040717;28;20041;-74
2022/11/13 05:02:02;;;;;;;24.25;21.65;;;5.10;99.90;;;;;;5048914;28;20506;-74
2022/11/13 05:04:28;;;;;;;25.27;22.60;;;5.10;99.90;;;;;;5023300;28;20367;-74
2022/11/13 05:06:53;;;;;;;25.95;23.15;;;5.10;99.90;;;;;;5025408;28;20176;-74
2022/11/13 05:09:19;;;;;;;26.10;23.30;;;5.00;99.90;;;;;;5003800;28;20030;-74
2022/11/13 05:11:45;;;;;;;25.25;22.67;;;5.00;99.90;;;;;;5012163;28;20042;-74
2022/11/13 05:14:11;;;;;;;25.77;23.00;;;5.10;99.90;;;;;;5028711;28;20034;-74
2022/11/13 05:16:37;;;;;;;26.58;23.88;;;5.10;99.90;;;;;;4998500;28;20041;-74
2022/11/13 05:19:05;;;;;;;25.67;23.00;;;5.20;99.90;;;;;;5036101;28;20500;-74
2022/11/13 05:21:32;;;;;;;25.30;22.80;;;5.20;99.90;;;;;;5010505;28;20120;-74
2022/11/13 05:23:58;;;;;;;25.23;22.80;;;5.30;99.90;;;;;;5024556;28;20073;-74
2022/11/13 05:26:25;;;;;;;24.77;22.17;;;5.40;99.90;;;;;;5026137;28;20506;-74
2022/11/13 05:28:51;;;;;;;25.83;21.75;;;5.40;99.90;;;;;;5023511;28;20120;-74
2022/11/13 05:31:16;;;;;;;24.05;21.55;;;5.50;99.90;;;;;;4995201;28;20073;-74
2022/11/13 05:33:42;;;;;;;22.95;20.65;;;5.50;99.90;;;;;;5011868;28;20077;-74
2022/11/13 05:36:14;;;;;;;23.55;21.02;;;5.50;99.90;;;;;;5018369;28;20075;-74
2022/11/13 05:38:40;;;;;;;22.85;20.50;;;5.50;99.90;;;;;;5032693;28;20124;-74
2022/11/13 05:41:11;;;;;;;22.85;20.38;;;5.50;99.90;;;;;;5048028;28;20077;-74
2022/11/13 05:43:38;;;;;;;22.33;20.15;;;5.50;99.90;;;;;;5015060;28;20393;-74
2022/11/13 05:46:06;;;;;;;22.00;19.70;;;5.50;99.90;;;;;;5006394;28;20436;-74
2022/11/13 05:48:33;;;;;;;24.35;21.70;;;5.50;99.90;;;;;;5039673;28;20144;-74
2022/11/13 05:51:01;;;;;;;22.70;20.50;;;5.50;99.90;;;;;;5018919;28;20037;-74
2022/11/13 05:53:28;;;;;;;22.55;20.27;;;5.50;99.90;;;;;;5022828;28;20487;-74
2022/11/13 05:55:53;;;;;;;22.50;20.30;;;5.60;99.90;;;;;;5009591;28;20227;-74
2022/11/13 05:58:19;;;;;;;23.30;20.98;;;5.50;99.90;;;;;;5026767;28;20111;-74
2022/11/13 06:00:45;;;;;;;22.13;19.83;;;5.60;99.90;;;;;;5027748;28;20049;-74
2022/11/13 06:03:10;;;;;;;20.80;18.70;;;5.50;99.90;;;;;;5026322;28;20045;-74
2022/11/13 06:05:36;;;;;;;21.30;19.20;;;5.50;99.90;;;;;;5003008;28;20041;-74
2022/11/13 06:08:01;;;;;;;20.60;18.52;;;5.40;99.90;;;;;;5035463;28;20125;-74
2022/11/13 06:10:27;;;;;;;20.25;18.23;;;5.40;99.90;;;;;;4994927;28;20168;-74
2022/11/13 06:12:54;;;;;;;21.75;19.55;;;5.30;99.90;;;;;;5027421;28;20161;-74
2022/11/13 06:15:19;;;;;;;21.70;19.55;;;5.20;99.90;;;;;;4995407;28;20038;-74
2022/11/13 06:17:45;;;;;;;20.67;18.58;;;5.20;99.90;;;;;;5034348;28;20056;-74
2022/11/13 06:20:11;;;;;;;20.77;18.23;;;5.10;99.90;;;;;;5019317;28;20077;-74
2022/11/13 06:22:36;;;;;;;22.20;19.88;;;5.00;99.90;;;;;;5047117;28;20076;-74
2022/11/13 06:25:02;;;;;;;22.25;19.85;;;5.00;99.90;;;;;;5045208;28;20045;-74
2022/11/13 06:27:28;;;;;;;20.60;18.50;;;4.90;99.90;;;;;;5037710;28;20049;-74
2022/11/13 06:29:54;;;;;;;21.02;18.83;;;4.80;99.90;;;;;;5030536;28;20503;-74
2022/11/13 06:32:19;;;;;;;20.55;18.40;;;4.80;99.90;;;;;;5026262;28;20042;-74
2022/11/13 06:34:45;;;;;;;22.58;20.27;;;4.70;99.90;;;;;;5008161;28;20403;-74
2022/11/13 06:37:10;;;;;;;24.27;21.67;;;4.60;99.90;;;;;;4999377;28;20105;-74
2022/11/13 06:39:36;;;;;;;25.40;22.75;;;4.60;99.90;;;;;;5038685;28;20037;-74
2022/11/13 06:42:11;;;;;;;25.52;22.40;;;4.60;99.90;;;;;;5054869;22;20038;-79
2022/11/13 06:44:37;;;;;;;24.70;22.20;;;4.60;99.90;;;;;;4983418;28;20523;-79
2022/11/13 06:47:18;;;;;;;23.20;20.83;;;4.60;99.90;;;;;;5000148;28;20125;-79
2022/11/13 06:53:34;;;;;;;22.98;19.83;;;4.50;99.90;;;;;;5000274;28;20054;-79
2022/11/13 06:56:25;;;;;;;21.38;19.27;;;4.40;99.90;;;;;;4992921;28;20033;-79
2022/11/13 06:59:05;;;;;;;21.90;19.50;;;4.40;99.90;;;;;;4981560;28;20038;-79
2022/11/13 07:01:38;;;;;;;21.53;19.40;;;4.30;99.90;;;;;;4984618;28;20695;-79
2022/11/13 07:04:20;;;;;;;25.15;22.42;;;4.30;99.90;;;;;;4972740;28;20324;-79
2022/11/13 07:07:33;;;;;;;25.60;22.90;;;4.20;99.90;;;;;;4997040;28;20046;-80
2022/11/13 07:10:36;;;;;;;26.83;24.02;;;4.20;99.90;;;;;;4898964;29;20108;-79
2022/11/13 07:14:00;;;;;;;29.50;26.13;;;4.20;99.90;;;;;;4921918;29;20510;-79
2022/11/13 07:16:46;;;;;;;31.00;27.63;;;4.20;99.90;;;;;;4905676;29;20051;-79
2022/11/13 07:19:26;;;;;;;33.20;29.38;;;4.20;99.90;;;;;;4906481;29;20526;-79
2022/11/13 07:21:58;;;;;;;34.17;30.23;;;4.30;99.90;;;;;;4954531;28;20046;-79
2022/11/13 07:24:43;;;;;;;33.25;29.75;;;4.40;99.90;;;;;;4994529;28;20046;-79
2022/11/13 07:27:13;;;;;;;32.50;29.13;;;4.50;99.90;;;;;;4999442;28;20034;-79
2022/11/13 07:29:54;;;;;;;30.17;26.90;;;4.50;99.90;;;;;;4976822;28;20567;-79
2022/11/13 07:32:24;;;;;;;29.42;26.05;;;4.50;99.90;;;;;;4977581;28;20045;-80
2022/11/13 07:34:54;;;;;;;28.73;25.63;;;4.60;99.90;;;;;;4996819;28;20030;-78
2022/11/13 07:37:47;;;;;;;28.67;25.63;;;4.50;99.90;;;;;;4975175;28;20034;-79
2022/11/13 07:40:40;;;;;;;29.60;26.35;;;4.50;99.90;;;;;;4974213;28;20133;-79
2022/11/13 07:43:26;;;;;;;28.95;25.90;;;4.50;99.90;;;;;;4999379;28;20064;-80
2022/11/13 07:46:11;;;;;;;26.90;24.08;;;4.60;99.90;;;;;;5004694;28;20091;-80
2022/11/13 07:49:13;;;;;;;30.08;26.63;;;4.60;99.90;;;;;;4952811;28;20505;-80
2022/11/13 07:52:04;;;;;;;32.78;26.98;;;4.60;99.90;;;;;;4976958;28;20050;-80
2022/11/13 07:54:53;;;;;;;28.15;25.20;;;4.60;99.90;;;;;;4972358;28;20038;-80
2022/11/13 07:57:40;;;;;;;28.63;25.60;;;4.60;99.90;;;;;;4963338;28;20050;-79
2022/11/13 08:00:41;;;;;;;30.35;27.13;;;4.60;99.90;;;;;;4977984;28;20452;-79
2022/11/13 08:03:20;;;;;;;31.13;26.40;;;4.60;99.90;;;;;;4988193;28;20096;-79
2022/11/13 08:06:03;;;;;;;32.22;28.73;;;4.60;99.90;;;;;;4985960;28;20038;-79
2022/11/13 08:08:51;;;;;;;34.90;31.23;;;4.60;99.90;;;;;;4982576;28;20068;-79
2022/11/13 08:11:29;;;;;;;34.65;31.20;;;4.70;99.90;;;;;;5001633;28;20042;-79
2022/11/13 08:20:34;;;;;;;31.25;27.95;;;5.20;99.90;;;;;;5040978;23;20055;-80
2022/11/13 08:31:16;;;;;;;27.95;25.25;;;5.90;99.90;;;;;;4932061;22;20120;-74
2022/11/13 08:34:35;;;;;;;25.88;23.27;;;5.90;99.90;;;;;;4959668;28;20038;-75
2022/11/13 08:37:07;;;;;;;24.67;22.27;;;6.00;99.90;;;;;;4966302;28;20050;-75
2022/11/13 08:39:44;;;;;;;25.70;23.08;;;6.20;99.90;;;;;;4976370;28;20046;-75
2022/11/13 08:42:12;;;;;;;24.17;21.77;;;6.20;99.90;;;;;;4976911;28;20039;-75
2022/11/13 08:44:49;;;;;;;25.67;23.17;;;6.30;99.90;;;;;;4961418;28;20137;-75
2022/11/13 08:47:20;;;;;;;24.35;22.05;;;6.40;99.90;;;;;;4964915;28;20055;-75
2022/11/13 08:49:46;;;;;;;23.55;21.15;;;6.50;99.90;;;;;;4952867;28;20030;-75
2022/11/13 08:52:11;;;;;;;21.13;19.02;;;6.40;99.90;;;;;;4960911;28;20093;-75
2022/11/13 08:54:37;;;;;;;20.15;18.25;;;6.50;99.90;;;;;;4976842;28;20125;-75
2022/11/13 08:57:03;;;;;;;19.70;17.88;;;6.60;99.90;;;;;;4976450;28;20046;-75
2022/11/13 08:59:28;;;;;;;19.75;17.73;;;6.60;99.90;;;;;;4977992;28;20081;-74
2022/11/13 09:01:58;;;;;;;19.98;18.02;;;6.80;99.90;;;;;;4984047;28;20096;-74
2022/11/13 09:04:24;;;;;;;19.73;17.80;;;6.80;99.90;;;;;;4952431;28;20074;-75
2022/11/13 09:06:51;;;;;;;18.27;16.42;;;6.90;99.90;;;;;;4992724;28;20039;-75
2022/11/13 09:09:17;;;;;;;18.90;16.95;;;7.00;99.90;;;;;;4960204;28;20081;-75
2022/11/13 09:11:43;;;;;;;19.50;17.63;;;7.10;99.90;;;;;;4992550;28;20038;-75
2022/11/13 09:14:08;;;;;;;18.50;16.80;;;7.10;99.90;;;;;;4964425;28;20046;-75
2022/11/13 09:16:34;;;;;;;18.42;16.60;;;7.20;99.90;;;;;;4992632;28;20041;-75
2022/11/13 09:18:59;;;;;;;18.15;16.45;;;7.30;99.90;;;;;;4960368;28;20045;-75
2022/11/13 09:21:25;;;;;;;16.85;15.15;;;7.40;99.90;;;;;;4960199;28;20042;-75
2022/11/13 09:23:51;;;;;;;16.83;15.13;;;7.50;99.90;;;;;;4976386;28;20451;-75
2022/11/13 09:26:17;;;;;;;17.02;15.45;;;7.50;99.90;;;;;;4976285;28;20092;-75
2022/11/13 09:28:43;;;;;;;17.40;15.60;;;7.70;99.90;;;;;;4980425;28;20161;-74
2022/11/13 09:31:09;;;;;;;17.02;15.43;;;7.70;99.90;;;;;;4974830;28;20125;-74
2022/11/13 09:33:34;;;;;;;16.90;15.30;;;7.80;99.90;;;;;;4953496;29;20046;-77
2022/11/13 09:36:01;;;;;;;17.08;15.40;;;8.00;99.90;;;;;;4937627;29;20504;-74
2022/11/13 09:38:28;;;;;;;16.33;14.73;;;8.20;99.90;;;;;;4974972;28;20043;-75
2022/11/13 09:41:02;;;;;;;15.68;14.20;;;8.60;99.90;;;;;;4988619;28;20097;-75
2022/11/13 09:43:39;;;;;;;14.40;13.10;;;8.90;99.90;;;;;;4956596;28;20056;-75
2022/11/13 09:46:10;;;;;;;14.48;13.05;;;9.10;99.90;;;;;;4955727;28;20081;-75
2022/11/13 09:48:39;;;;;;;13.65;12.25;;;9.30;99.90;;;;;;4980668;28;20039;-75
2022/11/13 09:51:12;;;;;;;13.63;12.27;;;9.30;99.90;;;;;;4975993;28;20712;-74
2022/11/13 09:53:39;;;;;;;13.75;12.45;;;9.30;99.90;;;;;;4979869;28;20042;-75
2022/11/13 09:56:33;;;;;;;13.70;11.90;;;9.40;99.90;;;;;;4971657;28;20031;-74
2022/11/13 09:59:15;;;;;;;13.35;11.95;;;9.50;99.90;;;;;;4969696;28;20035;-75
2022/11/13 10:01:52;;;;;;;13.93;12.48;;;9.60;99.90;;;;;;4970016;28;20045;-75
2022/11/13 10:04:32;;;;;;;13.07;11.77;;;9.70;99.90;;;;;;4980192;28;20039;-75
2022/11/13 10:07:25;;;;;;;12.75;11.55;;;9.80;99.90;;;;;;4994384;28;20166;-75
2022/11/13 10:10:24;;;;;;;12.40;11.20;;;9.80;99.90;;;;;;4981404;28;20042;-75
2022/11/13 10:12:53;;;;;;;13.10;11.80;;;10.00;99.90;;;;;;4974413;28;20554;-74
2022/11/13 10:15:19;;;;;;;11.32;10.20;;;10.10;99.90;;;;;;4976543;28;20043;-76
2022/11/13 10:17:54;;;;;;;11.68;10.57;;;10.20;99.90;;;;;;4980958;28;20039;-75
2022/11/13 10:20:39;;;;;;;11.85;10.68;;;10.30;99.90;;;;;;4988252;28;20043;-74
2022/11/13 10:23:17;;;;;;;11.88;10.50;;;10.40;99.90;;;;;;4967104;28;20055;-75
2022/11/13 10:25:43;;;;;;;11.57;10.48;;;10.50;99.90;;;;;;4955179;28;20092;-75
2022/11/13 10:28:15;;;;;;;10.32;9.43;;;10.70;99.90;;;;;;4959095;28;20043;-75
2022/11/13 10:30:41;;;;;;;10.65;9.57;;;10.80;99.90;;;;;;4964772;28;20043;-75
2022/11/13 10:33:08;;;;;;;11.18;10.07;;;10.80;99.90;;;;;;4987588;28;20092;-75
2022/11/13 10:35:46;;;;;;;10.95;9.85;;;10.90;99.90;;;;;;4983092;28;20030;-75
2022/11/13 10:38:35;;;;;;;10.65;9.57;;;11.00;99.90;;;;;;4946182;28;20051;-75
2022/11/13 10:41:16;;;;;;;10.65;9.65;;;11.10;99.90;;;;;;4968732;28;20050;-75
2022/11/13 10:44:05;;;;;;;10.13;8.65;;;11.20;99.90;;;;;;4956505;28;20121;-75
2022/11/13 10:46:32;;;;;;;9.68;8.77;;;11.30;99.90;;;;;;4970901;28;20409;-75
2022/11/13 10:49:09;;;;;;;9.45;8.55;;;11.40;99.90;;;;;;4988273;28;20045;-76
2022/11/13 10:51:35;;;;;;;9.48;8.57;;;11.50;99.90;;;;;;4977377;28;20070;-77
2022/11/13 10:54:23;;;;;;;9.55;8.57;;;11.50;99.90;;;;;;4956816;28;20509;-77
2022/11/13 10:57:04;;;;;;;10.30;9.30;;;11.60;99.90;;;;;;4988256;28;20125;-77
2022/11/13 10:59:43;;;;;;;9.52;8.65;;;11.60;99.90;;;;;;4979284;28;20401;-75
2022/11/13 11:02:22;;;;;;;9.40;8.50;;;11.70;99.90;;;;;;4944679;28;20034;-75
2022/11/13 11:04:59;;;;;;;10.38;8.82;;;11.70;99.90;;;;;;4957504;28;20113;-77
2022/11/13 11:07:25;;;;;;;9.18;8.27;;;11.70;99.90;;;;;;4987516;28;20061;-77
2022/11/13 11:09:51;;;;;;;10.02;9.02;;;11.90;99.90;;;;;;4966348;28;20035;-77
2022/11/13 11:12:19;;;;;;;10.15;9.00;;;12.00;99.90;;;;;;4987557;28;20039;-75
2022/11/13 11:14:56;;;;;;;10.63;8.52;;;12.10;99.90;;;;;;4948585;28;20086;-75
2022/11/13 11:17:42;;;;;;;10.05;9.05;;;12.20;99.90;;;;;;4953225;28;20413;-75
2022/11/13 11:20:46;;;;;;;9.65;8.75;;;12.40;99.90;;;;;;4967009;28;20097;-75
2022/11/13 11:23:35;;;;;;;8.23;7.50;;;12.60;99.90;;;;;;4970880;28;20138;-76
2022/11/13 11:26:29;;;;;;;8.68;7.78;;;12.90;99.90;;;;;;4982368;28;20039;-75
2022/11/13 11:29:15;;;;;;;8.55;7.65;;;13.10;99.90;;;;;;4978407;28;20133;-77
2022/11/13 11:31:45;;;;;;;8.50;7.70;;;13.40;99.90;;;;;;4980056;28;20105;-77
2022/11/13 11:34:19;;;;;;;7.68;6.97;;;13.70;99.90;;;;;;4973347;28;20053;-75
2022/11/13 11:36:59;;;;;;;7.75;7.05;;;14.10;99.90;;;;;;4980430;28;20133;-76
2022/11/13 11:40:22;;;;;;;7.35;6.65;;;14.30;99.90;;;;;;4958799;28;20039;-77
2022/11/13 11:43:03;;;;;;;7.65;6.85;;;14.40;99.90;;;;;;4903902;29;20135;-77
2022/11/13 11:45:37;;;;;;;8.20;7.40;;;14.50;99.90;;;;;;4918246;29;20048;-77
2022/11/13 11:48:10;;;;;;;8.85;7.03;;;14.50;99.90;;;;;;4936562;28;20133;-76
2022/11/13 11:51:33;;;;;;;7.82;7.03;;;14.40;99.90;;;;;;4982393;28;20047;-77
2022/11/13 11:54:19;;;;;;;6.80;6.10;;;14.30;99.90;;;;;;4919247;29;20036;-77
2022/11/13 11:56:49;;;;;;;6.85;6.15;;;14.20;99.90;;;;;;4883015;29;20251;-76
2022/11/13 11:59:45;;;;;;;6.80;5.95;;;14.20;99.90;;;;;;4946023;28;20493;-77
2022/11/13 12:02:32;;;;;;;6.95;6.25;;;14.10;99.90;;;;;;4988077;28;20046;-77
2022/11/13 12:05:22;;;;;;;6.45;5.80;;;14.20;99.90;;;;;;4988944;28;20068;-77
2022/11/13 12:07:54;;;;;;;7.07;5.95;;;14.30;99.90;;;;;;4951858;28;20080;-77
2022/11/13 12:10:41;;;;;;;6.70;6.00;;;14.30;99.90;;;;;;4977926;28;20448;-76
2022/11/13 12:13:16;;;;;;;6.57;5.97;;;14.30;99.90;;;;;;4996955;28;20042;-76
2022/11/13 12:16:00;;;;;;;6.32;5.47;;;14.30;99.90;;;;;;4983720;28;20039;-76
2022/11/13 12:18:29;;;;;;;6.68;6.07;;;14.40;99.90;;;;;;4990669;28;20054;-78
2022/11/13 12:21:26;;;;;;;6.15;5.55;;;14.40;99.90;;;;;;4955915;28;20039;-78
2022/11/13 12:23:52;;;;;;;6.80;6.10;;;14.50;99.90;;;;;;4979170;28;20046;-77
2022/11/13 12:26:46;;;;;;;6.90;6.20;;;14.50;99.90;;;;;;4958671;28;20047;-76
2022/11/13 12:29:33;;;;;;;6.75;6.05;;;14.50;99.90;;;;;;4972711;28;20681;-76
2022/11/13 12:32:11;;;;;;;7.78;6.97;;;14.60;99.90;;;;;;4957097;28;20031;-75
2022/11/13 12:34:51;;;;;;;7.70;6.90;;;14.60;99.90;;;;;;4957443;28;20034;-75
2022/11/13 12:37:25;;;;;;;7.13;6.43;;;14.50;99.90;;;;;;4973903;28;20047;-77
2022/11/13 12:39:59;;;;;;;7.15;6.47;;;14.50;99.90;;;;;;4956181;28;20445;-77
2022/11/13 12:42:43;;;;;;;7.38;6.68;;;14.50;99.90;;;;;;4973444;28;20497;-77
2022/11/13 12:45:24;;;;;;;7.22;6.47;;;14.40;99.90;;;;;;4987851;28;20054;-76
2022/11/13 12:47:51;;;;;;;8.15;7.07;;;14.40;99.90;;;;;;4946976;28;20042;-78
2022/11/13 12:50:43;;;;;;;7.28;6.43;;;14.40;99.90;;;;;;4955132;28;20057;-76
2022/11/13 12:53:10;;;;;;;7.30;6.60;;;14.40;99.90;;;;;;4978922;28;20043;-76
2022/11/13 12:55:39;;;;;;;6.63;5.88;;;14.40;99.90;;;;;;4951448;28;20450;-77
2022/11/13 12:58:09;;;;;;;6.63;6.03;;;14.30;99.90;;;;;;4967411;28;20118;-76
2022/11/13 13:00:41;;;;;;;7.20;6.25;;;14.30;99.90;;;;;;4957183;28;20045;-76
2022/11/13 13:03:15;;;;;;;6.63;5.93;;;14.20;99.90;;;;;;4957669;28;20054;-77
2022/11/13 13:06:21;;;;;;;6.80;6.10;;;14.10;99.90;;;;;;4974802;28;20038;-76
2022/11/13 13:09:03;;;;;;;9.13;6.68;;;14.00;99.90;;;;;;4996284;28;20047;-76
2022/11/13 13:12:06;;;;;;;6.70;6.00;;;14.00;99.90;;;;;;4978540;28;20045;-76
2022/11/13 13:14:31;;;;;;;7.35;6.20;;;14.00;99.90;;;;;;4985809;28;20051;-76
2022/11/13 13:17:13;;;;;;;8.63;6.32;;;14.00;99.90;;;;;;4967799;28;20042;-76
2022/11/13 13:19:39;;;;;;;7.13;6.43;;;14.00;99.90;;;;;;4974537;28;20042;-76
2022/11/13 13:22:10;;;;;;;7.10;6.10;;;13.90;99.90;;;;;;4990943;28;20035;-76
2022/11/13 13:24:37;;;;;;;7.07;6.38;;;13.90;99.90;;;;;;4978797;28;20101;-76